createdAt,value
2019-06-01T00:00:14.899Z,101924.84
2019-06-01T00:01:19.866Z,101926.95
2019-06-01T00:02:25.151Z,101932.86
2019-06-01T00:03:30.158Z,101929.00
2019-06-01T00:04:36.024Z,101936.33
2019-06-01T00:05:40.984Z,101927.80
2019-06-01T00:06:47.027Z,101930.47
2019-06-01T00:07:52.182Z,101933.66
2019-06-01T00:08:58.028Z,101935.72
2019-06-01T00:10:03.001Z,101936.34
2019-06-01T00:11:08.547Z,101934.55
2019-06-01T00:12:13.235Z,101928.56
2019-06-01T00:13:18.791Z,101931.97
2019-06-01T00:14:24.096Z,101930.75
2019-06-01T00:15:30.044Z,101928.66
2019-06-01T00:16:34.762Z,101922.88
2019-06-01T00:17:41.760Z,101931.61
2019-06-01T00:18:48.231Z,101926.76
2019-06-01T00:19:54.286Z,101924.00
2019-06-01T00:20:59.524Z,101921.45
2019-06-01T00:22:05.070Z,101928.64
2019-06-01T00:23:10.115Z,101927.36
2019-06-01T00:24:15.967Z,101932.14
2019-06-01T00:25:20.948Z,101926.17
2019-06-01T00:26:27.188Z,101927.31
2019-06-01T00:27:32.246Z,101924.30
2019-06-01T00:28:37.793Z,101928.41
2019-06-01T00:29:42.718Z,101922.11
2019-06-01T00:30:48.592Z,101927.78
2019-06-01T00:31:53.350Z,101927.41
2019-06-01T00:32:58.931Z,101926.83
2019-06-01T00:34:04.182Z,101925.17
2019-06-01T00:35:09.741Z,101928.73
2019-06-01T00:36:14.440Z,101924.07
2019-06-01T00:37:20.011Z,101925.81
2019-06-01T00:38:25.259Z,101930.94
2019-06-01T00:39:30.278Z,101924.13
2019-06-01T00:40:35.539Z,101926.72
2019-06-01T00:41:41.917Z,101925.70
2019-06-01T00:42:48.214Z,101927.17
2019-06-01T00:43:54.214Z,101932.34
2019-06-01T00:44:59.599Z,101920.69
2019-06-01T00:46:04.897Z,101928.95
2019-06-01T00:47:10.205Z,101925.81
2019-06-01T00:48:15.590Z,101930.06
2019-06-01T00:49:20.833Z,101922.49
2019-06-01T00:50:25.891Z,101923.09
2019-06-01T00:51:31.163Z,101926.80
2019-06-01T00:52:36.672Z,101925.28
2019-06-01T00:53:43.293Z,101927.41
2019-06-01T00:54:49.487Z,101929.14
2019-06-01T00:55:54.292Z,101928.16
2019-06-01T00:57:00.290Z,101927.93
2019-06-01T00:58:05.001Z,101927.11
2019-06-01T00:59:10.329Z,101935.68
2019-06-01T01:00:15.304Z,101927.83
2019-06-01T01:01:20.883Z,101939.27
2019-06-01T01:02:25.575Z,101935.34
2019-06-01T01:03:31.170Z,101932.39
2019-06-01T01:04:36.435Z,101933.84
2019-06-01T01:05:41.757Z,101939.48
2019-06-01T01:06:46.763Z,101940.90
2019-06-01T01:07:53.550Z,101939.16
2019-06-01T01:08:58.638Z,101943.27
2019-06-01T01:10:03.933Z,101938.17
2019-06-01T01:11:08.636Z,101944.58
2019-06-01T01:12:13.683Z,101943.77
2019-06-01T01:13:20.912Z,101947.15
2019-06-01T01:14:26.200Z,101944.09
2019-06-01T01:15:31.157Z,101940.12
2019-06-01T01:16:36.700Z,101938.92
2019-06-01T01:17:41.209Z,101944.05
2019-06-01T01:18:47.765Z,101936.98
2019-06-01T01:19:53.918Z,101937.19
2019-06-01T01:20:59.792Z,101935.23
2019-06-01T01:22:05.773Z,101934.66
2019-06-01T01:23:10.845Z,101941.66
2019-06-01T01:24:16.087Z,101940.86
2019-06-01T01:25:21.932Z,101937.34
2019-06-01T01:26:26.909Z,101938.53
2019-06-01T01:27:32.479Z,101946.33
2019-06-01T01:28:37.736Z,101937.15
2019-06-01T01:29:43.092Z,101936.75
2019-06-01T01:31:02.988Z,101936.70
2019-06-01T01:31:55.392Z,101936.80
2019-06-01T01:33:00.589Z,101931.17
2019-06-01T01:34:06.142Z,101936.31
2019-06-01T01:35:10.955Z,101936.91
2019-06-01T01:36:16.769Z,101936.14
2019-06-01T01:37:21.788Z,101934.45
2019-06-01T01:38:27.644Z,101925.81
2019-06-01T01:39:32.910Z,101927.09
2019-06-01T01:40:38.301Z,101928.02
2019-06-01T01:41:43.312Z,101931.84
2019-06-01T01:42:50.491Z,101931.81
2019-06-01T01:43:56.566Z,101930.52
2019-06-01T01:45:02.160Z,101932.25
2019-06-01T01:46:06.745Z,101935.64
2019-06-01T01:47:14.434Z,101927.66
2019-06-01T01:48:19.158Z,101928.48
2019-06-01T01:49:24.743Z,101931.72
2019-06-01T01:50:29.718Z,101928.23
2019-06-01T01:51:35.311Z,101927.03
2019-06-01T01:52:40.834Z,101933.09
2019-06-01T01:53:46.125Z,101926.53
2019-06-01T01:54:51.138Z,101929.52
2019-06-01T01:55:57.232Z,101930.78
2019-06-01T01:57:02.718Z,101927.73
2019-06-01T01:58:08.356Z,101928.70
2019-06-01T01:59:12.838Z,101928.67
2019-06-01T02:00:32.316Z,101932.99
2019-06-01T02:01:37.310Z,101937.88
2019-06-01T02:02:42.970Z,101928.41
2019-06-01T02:03:47.942Z,101930.16
2019-06-01T02:04:54.226Z,101928.34
2019-06-01T02:05:59.257Z,101924.94
2019-06-01T02:07:04.789Z,101930.08
2019-06-01T02:08:09.736Z,101927.95
2019-06-01T02:09:14.822Z,101934.92
2019-06-01T02:10:19.515Z,101926.53
2019-06-01T02:11:24.799Z,101930.48
2019-06-01T02:12:30.070Z,101928.77
2019-06-01T02:13:35.998Z,101928.37
2019-06-01T02:14:41.001Z,101928.77
2019-06-01T02:15:46.282Z,101927.87
2019-06-01T02:16:51.900Z,101926.62
2019-06-01T02:17:58.155Z,101919.14
2019-06-01T02:19:03.429Z,101930.98
2019-06-01T02:20:09.120Z,101925.37
2019-06-01T02:21:13.807Z,101929.70
2019-06-01T02:22:19.364Z,101921.37
2019-06-01T02:23:24.643Z,101927.84
2019-06-01T02:24:30.042Z,101927.09
2019-06-01T02:25:34.626Z,101930.52
2019-06-01T02:26:40.088Z,101923.58
2019-06-01T02:27:44.540Z,101914.13
2019-06-01T02:28:49.832Z,101919.72
2019-06-01T02:29:55.300Z,101926.25
2019-06-01T02:31:02.104Z,101907.57
2019-06-01T02:32:07.587Z,101914.09
2019-06-01T02:33:12.626Z,101914.96
2019-06-01T02:34:17.319Z,101918.89
2019-06-01T02:35:23.166Z,101918.89
2019-06-01T02:36:28.425Z,101919.31
2019-06-01T02:37:33.459Z,101921.48
2019-06-01T02:38:38.199Z,101921.51
2019-06-01T02:39:44.499Z,101923.17
2019-06-01T02:40:49.882Z,101914.95
2019-06-01T02:41:56.685Z,101925.41
2019-06-01T02:43:03.716Z,101922.70
2019-06-01T02:44:08.923Z,101916.72
2019-06-01T02:45:14.124Z,101917.11
2019-06-01T02:46:19.714Z,101917.62
2019-06-01T02:47:24.687Z,101917.62
2019-06-01T02:48:29.723Z,101911.50
2019-06-01T02:49:35.057Z,101909.79
2019-06-01T02:50:40.686Z,101903.69
2019-06-01T02:51:45.667Z,101911.49
2019-06-01T02:52:51.214Z,101917.17
2019-06-01T02:53:57.593Z,101933.66
2019-06-01T02:55:04.584Z,101908.45
2019-06-01T02:56:09.646Z,101913.24
2019-06-01T02:57:15.488Z,101901.03
2019-06-01T02:58:21.044Z,101904.97
2019-06-01T02:59:26.574Z,101902.38
2019-06-01T03:01:12.102Z,101924.55
2019-06-01T03:02:17.776Z,101908.07
2019-06-01T03:03:22.462Z,101908.08
2019-06-01T03:04:28.112Z,101915.03
2019-06-01T03:05:33.748Z,101922.42
2019-06-01T03:06:42.338Z,101921.53
2019-06-01T03:07:50.241Z,101909.31
2019-06-01T03:08:59.759Z,101911.91
2019-06-01T03:10:06.955Z,101899.77
2019-06-01T03:11:15.475Z,101899.77
2019-06-01T03:12:22.637Z,101908.91
2019-06-01T03:13:29.828Z,101898.47
2019-06-01T03:14:36.923Z,101934.14
2019-06-01T03:15:43.959Z,101907.20
2019-06-01T03:16:52.391Z,101908.94
2019-06-01T03:18:01.557Z,101905.02
2019-06-01T03:19:08.068Z,101907.20
2019-06-01T03:20:14.802Z,101910.63
2019-06-01T03:21:22.383Z,101908.48
2019-06-01T03:22:29.087Z,101898.52
2019-06-01T03:23:36.101Z,101898.52
2019-06-01T03:24:41.681Z,101906.81
2019-06-01T03:25:49.578Z,101905.47
2019-06-01T03:26:56.239Z,101909.73
2019-06-01T03:28:04.237Z,101905.43
2019-06-01T03:29:12.728Z,101905.43
2019-06-01T03:30:23.299Z,101913.27
2019-06-01T03:31:29.135Z,101910.61
2019-06-01T03:32:37.131Z,101910.63
2019-06-01T03:33:41.453Z,101910.63
2019-06-01T03:34:46.410Z,101910.64
2019-06-01T03:35:51.964Z,101914.55
2019-06-01T03:36:56.977Z,101910.19
2019-06-01T03:38:03.018Z,101910.63
2019-06-01T03:39:08.518Z,101910.63
2019-06-01T03:40:23.406Z,101943.69
2019-06-01T03:41:21.193Z,101908.95
2019-06-01T03:42:26.761Z,101913.27
2019-06-01T03:43:32.064Z,101913.27
2019-06-01T03:44:37.923Z,101915.48
2019-06-01T03:45:42.905Z,101902.81
2019-06-01T03:46:48.644Z,101904.58
2019-06-01T03:47:54.201Z,101892.84
2019-06-01T03:48:59.480Z,101910.19
2019-06-01T03:50:04.837Z,101906.70
2019-06-01T03:51:10.406Z,101905.81
2019-06-01T03:52:15.403Z,101905.84
2019-06-01T03:53:20.980Z,101903.64
2019-06-01T03:54:26.102Z,101898.91
2019-06-01T03:55:31.985Z,101904.50
2019-06-01T03:56:36.928Z,101904.50
2019-06-01T03:57:42.258Z,101905.80
2019-06-01T03:58:47.223Z,101904.52
2019-06-01T03:59:53.095Z,101905.85
2019-06-01T04:00:58.263Z,101901.90
2019-06-01T04:02:03.566Z,101903.16
2019-06-01T04:03:09.202Z,101903.16
2019-06-01T04:04:15.044Z,101903.67
2019-06-01T04:05:20.019Z,101903.67
2019-06-01T04:06:25.843Z,101915.75
2019-06-01T04:07:31.390Z,101914.01
2019-06-01T04:08:36.981Z,101914.01
2019-06-01T04:09:41.741Z,101919.17
2019-06-01T04:10:47.486Z,101914.87
2019-06-01T04:11:52.486Z,101911.48
2019-06-01T04:12:58.361Z,101922.81
2019-06-01T04:14:03.605Z,101922.81
2019-06-01T04:15:13.104Z,101925.76
2019-06-01T04:16:15.760Z,101922.70
2019-06-01T04:17:21.035Z,101922.70
2019-06-01T04:18:25.511Z,101924.39
2019-06-01T04:19:31.001Z,101929.08
2019-06-01T04:20:36.098Z,101927.37
2019-06-01T04:21:41.451Z,101927.37
2019-06-01T04:22:46.182Z,101913.20
2019-06-01T04:23:51.575Z,101913.20
2019-06-01T04:24:57.189Z,101926.66
2019-06-01T04:26:04.149Z,101920.94
2019-06-01T04:27:10.244Z,101927.91
2019-06-01T04:28:16.363Z,101929.04
2019-06-01T04:29:21.329Z,101930.10
2019-06-01T04:30:28.974Z,101932.19
2019-06-01T04:31:33.678Z,101930.62
2019-06-01T04:32:49.350Z,101930.62
2019-06-01T04:33:46.204Z,101932.77
2019-06-01T04:34:51.771Z,101939.19
2019-06-01T04:35:56.294Z,101938.66
2019-06-01T04:37:03.496Z,101938.72
2019-06-01T04:38:09.237Z,101930.54
2019-06-01T04:39:15.482Z,101940.95
2019-06-01T04:40:20.146Z,101945.68
2019-06-01T04:41:25.987Z,101945.68
2019-06-01T04:42:30.979Z,101941.70
2019-06-01T04:43:36.794Z,101945.71
2019-06-01T04:44:41.855Z,101942.97
2019-06-01T04:45:47.497Z,101936.55
2019-06-01T04:46:52.188Z,101936.55
2019-06-01T04:47:57.524Z,101950.33
2019-06-01T04:49:02.761Z,101931.13
2019-06-01T04:50:08.724Z,101945.02
2019-06-01T04:51:14.969Z,101946.41
2019-06-01T04:52:20.967Z,101946.41
2019-06-01T04:53:26.075Z,101949.53
2019-06-01T04:54:31.523Z,101940.79
2019-06-01T04:55:36.794Z,101944.27
2019-06-01T04:56:42.358Z,101952.47
2019-06-01T04:57:47.036Z,101946.95
2019-06-01T04:58:52.964Z,101946.89
2019-06-01T04:59:57.716Z,101946.89
2019-06-01T05:01:03.295Z,101946.38
2019-06-01T05:02:09.305Z,101946.38
2019-06-01T05:03:15.504Z,101957.22
2019-06-01T05:04:20.419Z,101963.36
2019-06-01T05:05:26.257Z,101948.63
2019-06-01T05:06:31.063Z,101946.28
2019-06-01T05:07:37.184Z,101948.45
2019-06-01T05:08:42.478Z,101948.45
2019-06-01T05:09:48.412Z,101949.37
2019-06-01T05:10:53.436Z,101956.34
2019-06-01T05:11:59.304Z,101953.92
2019-06-01T05:13:03.774Z,101953.92
2019-06-01T05:14:09.724Z,101948.70
2019-06-01T05:15:16.209Z,101954.36
2019-06-01T05:16:22.338Z,101954.36
2019-06-01T05:17:27.433Z,101938.61
2019-06-01T05:18:32.959Z,101947.28
2019-06-01T05:19:38.351Z,101951.59
2019-06-01T05:20:44.778Z,101951.59
2019-06-01T05:21:49.724Z,101976.43
2019-06-01T05:22:55.313Z,101935.39
2019-06-01T05:24:00.457Z,101935.39
2019-06-01T05:25:06.870Z,101940.25
2019-06-01T05:26:12.853Z,101953.33
2019-06-01T05:27:18.492Z,101939.39
2019-06-01T05:28:23.750Z,101948.70
2019-06-01T05:29:29.283Z,101948.26
2019-06-01T05:30:34.617Z,101952.28
2019-06-01T05:31:40.799Z,101937.52
2019-06-01T05:32:46.101Z,101937.52
2019-06-01T05:33:51.985Z,101938.95
2019-06-01T05:34:56.755Z,101942.00
2019-06-01T05:36:02.601Z,101943.30
2019-06-01T05:37:08.509Z,101933.44
2019-06-01T05:38:14.327Z,101935.96
2019-06-01T05:39:19.604Z,101923.95
2019-06-01T05:40:25.489Z,101923.95
2019-06-01T05:41:30.461Z,101930.35
2019-06-01T05:42:36.307Z,101933.83
2019-06-01T05:43:41.973Z,101931.53
2019-06-01T05:44:47.542Z,101931.53
2019-06-01T05:45:52.810Z,101931.53
2019-06-01T05:46:58.382Z,101931.61
2019-06-01T05:48:03.629Z,101921.05
2019-06-01T05:49:11.988Z,101923.40
2019-06-01T05:50:16.442Z,101929.59
2019-06-01T05:51:23.054Z,101926.28
2019-06-01T05:52:27.798Z,101927.22
2019-06-01T05:53:33.694Z,101928.02
2019-06-01T05:54:38.743Z,101920.95
2019-06-01T05:55:44.310Z,101925.27
2019-06-01T05:56:49.874Z,101930.41
2019-06-01T05:57:55.158Z,101925.22
2019-06-01T05:59:00.138Z,101932.70
2019-06-01T06:00:06.198Z,101930.98
2019-06-01T06:01:12.348Z,101926.67
2019-06-01T06:02:19.486Z,101920.12
2019-06-01T06:03:39.528Z,101917.19
2019-06-01T06:04:32.477Z,101917.59
2019-06-01T06:05:37.518Z,101918.59
2019-06-01T06:06:44.320Z,101918.02
2019-06-01T06:07:49.271Z,101919.98
2019-06-01T06:08:55.185Z,101921.63
2019-06-01T06:10:00.148Z,101920.59
2019-06-01T06:11:06.320Z,101919.17
2019-06-01T06:12:11.334Z,101921.36
2019-06-01T06:13:17.459Z,101918.80
2019-06-01T06:14:22.820Z,101923.98
2019-06-01T06:15:28.088Z,101926.96
2019-06-01T06:16:33.351Z,101922.16
2019-06-01T06:17:38.929Z,101932.36
2019-06-01T06:18:43.380Z,101925.43
2019-06-01T06:19:49.315Z,101927.92
2019-06-01T06:20:54.274Z,101923.66
2019-06-01T06:21:59.822Z,101922.73
2019-06-01T06:23:04.534Z,101919.81
2019-06-01T06:24:09.836Z,101921.81
2019-06-01T06:25:14.823Z,101929.84
2019-06-01T06:26:20.902Z,101926.31
2019-06-01T06:27:27.207Z,101929.09
2019-06-01T06:28:32.574Z,101928.84
2019-06-01T06:29:37.831Z,101930.06
2019-06-01T06:30:43.396Z,101931.45
2019-06-01T06:31:48.463Z,101932.96
2019-06-01T06:32:54.272Z,101935.92
2019-06-01T06:33:58.911Z,101937.66
2019-06-01T06:35:03.933Z,101933.20
2019-06-01T06:36:08.904Z,101928.39
2019-06-01T06:37:15.551Z,101934.77
2019-06-01T06:38:21.931Z,101930.09
2019-06-01T06:39:27.776Z,101932.00
2019-06-01T06:40:33.829Z,101930.61
2019-06-01T06:41:39.377Z,101930.82
2019-06-01T06:42:44.621Z,101931.16
2019-06-01T06:43:50.522Z,101924.75
2019-06-01T06:44:55.761Z,101925.83
2019-06-01T06:46:01.339Z,101926.13
2019-06-01T06:47:06.278Z,101930.70
2019-06-01T06:48:11.848Z,101929.53
2019-06-01T06:49:17.130Z,101931.08
2019-06-01T06:50:23.566Z,101926.56
2019-06-01T06:51:28.647Z,101933.32
2019-06-01T06:52:34.264Z,101937.59
2019-06-01T06:53:38.937Z,101940.97
2019-06-01T06:54:44.276Z,101937.29
2019-06-01T06:55:49.248Z,101935.04
2019-06-01T06:56:54.506Z,101939.69
2019-06-01T06:57:59.214Z,101939.22
2019-06-01T06:59:04.290Z,101938.27
2019-06-01T07:00:09.346Z,101943.96
2019-06-01T07:01:14.607Z,101942.67
2019-06-01T07:02:19.482Z,101944.33
2019-06-01T07:03:25.241Z,101943.53
2019-06-01T07:04:30.494Z,101936.71
2019-06-01T07:05:36.080Z,101936.05
2019-06-01T07:06:40.762Z,101937.45
2019-06-01T07:07:46.021Z,101936.69
2019-06-01T07:08:50.964Z,101942.31
2019-06-01T07:09:56.136Z,101939.91
2019-06-01T07:11:00.845Z,101934.99
2019-06-01T07:12:06.385Z,101929.22
2019-06-01T07:13:11.656Z,101937.23
2019-06-01T07:14:17.730Z,101935.64
2019-06-01T07:15:23.491Z,101938.78
2019-06-01T07:16:28.588Z,101935.97
2019-06-01T07:17:33.261Z,101938.25
2019-06-01T07:18:39.100Z,101941.08
2019-06-01T07:19:44.673Z,101941.34
2019-06-01T07:20:50.241Z,101938.97
2019-06-01T07:21:55.190Z,101951.57
2019-06-01T07:23:01.024Z,101943.12
2019-06-01T07:24:05.746Z,101942.89
2019-06-01T07:25:11.551Z,101949.06
2019-06-01T07:26:17.095Z,101947.00
2019-06-01T07:27:22.631Z,101953.86
2019-06-01T07:28:28.267Z,101957.06
2019-06-01T07:29:33.942Z,101958.42
2019-06-01T07:30:49.701Z,101962.22
2019-06-01T07:31:46.720Z,101964.20
2019-06-01T07:32:52.034Z,101957.83
2019-06-01T07:33:58.108Z,101960.66
2019-06-01T07:35:03.093Z,101960.60
2019-06-01T07:36:08.380Z,101957.11
2019-06-01T07:37:12.881Z,101960.58
2019-06-01T07:38:18.492Z,101954.17
2019-06-01T07:39:24.868Z,101954.50
2019-06-01T07:40:30.604Z,101956.59
2019-06-01T07:41:35.558Z,101961.11
2019-06-01T07:42:41.116Z,101959.53
2019-06-01T07:43:46.130Z,101956.81
2019-06-01T07:44:51.438Z,101955.87
2019-06-01T07:45:56.411Z,101956.75
2019-06-01T07:47:02.048Z,101958.16
2019-06-01T07:48:07.265Z,101951.84
2019-06-01T07:49:13.127Z,101961.35
2019-06-01T07:50:17.806Z,101958.69
2019-06-01T07:51:23.653Z,101957.05
2019-06-01T07:52:28.631Z,101963.27
2019-06-01T07:53:33.896Z,101964.43
2019-06-01T07:54:38.867Z,101966.69
2019-06-01T07:55:44.385Z,101964.81
2019-06-01T07:56:49.091Z,101964.42
2019-06-01T07:57:54.703Z,101965.83
2019-06-01T07:58:59.467Z,101966.20
2019-06-01T08:00:04.661Z,101959.23
2019-06-01T08:01:09.097Z,101959.73
2019-06-01T08:02:14.669Z,101960.85
2019-06-01T08:03:19.924Z,101957.38
2019-06-01T08:04:28.121Z,101961.92
2019-06-01T08:05:33.222Z,101956.73
2019-06-01T08:06:45.132Z,101959.13
2019-06-01T08:07:45.746Z,101955.72
2019-06-01T08:08:50.857Z,101952.41
2019-06-01T08:09:56.121Z,101959.32
2019-06-01T08:11:02.271Z,101956.08
2019-06-01T08:12:07.222Z,101950.92
2019-06-01T08:13:13.077Z,101949.08
2019-06-01T08:14:18.051Z,101944.30
2019-06-01T08:15:23.567Z,101952.89
2019-06-01T08:16:28.276Z,101953.02
2019-06-01T08:17:34.154Z,101947.09
2019-06-01T08:18:39.406Z,101950.91
2019-06-01T08:19:44.992Z,101945.11
2019-06-01T08:20:50.221Z,101956.95
2019-06-01T08:21:55.794Z,101948.69
2019-06-01T08:23:01.246Z,101946.61
2019-06-01T08:24:07.076Z,101937.72
2019-06-01T08:25:12.299Z,101937.05
2019-06-01T08:26:20.019Z,101941.19
2019-06-01T08:27:24.947Z,101943.81
2019-06-01T08:28:30.882Z,101936.64
2019-06-01T08:29:35.876Z,101935.00
2019-06-01T08:30:41.139Z,101942.80
2019-06-01T08:31:46.106Z,101940.78
2019-06-01T08:32:51.654Z,101927.45
2019-06-01T08:33:56.086Z,101927.52
2019-06-01T08:35:08.559Z,101933.17
2019-06-01T08:36:08.072Z,101934.37
2019-06-01T08:37:13.903Z,101932.80
2019-06-01T08:38:18.886Z,101927.38
2019-06-01T08:39:25.199Z,101926.80
2019-06-01T08:40:31.429Z,101932.71
2019-06-01T08:41:36.749Z,101927.52
2019-06-01T08:42:41.733Z,101935.44
2019-06-01T08:43:47.299Z,101927.83
2019-06-01T08:44:52.248Z,101932.77
2019-06-01T08:45:57.541Z,101930.74
2019-06-01T08:47:02.348Z,101933.61
2019-06-01T08:48:07.921Z,101929.19
2019-06-01T08:49:12.627Z,101932.01
2019-06-01T08:50:18.807Z,101931.19
2019-06-01T08:51:23.989Z,101926.50
2019-06-01T08:52:30.393Z,101931.35
2019-06-01T08:53:35.164Z,101921.97
2019-06-01T08:54:40.508Z,101929.67
2019-06-01T08:55:45.737Z,101922.22
2019-06-01T08:56:51.341Z,101920.92
2019-06-01T08:57:56.044Z,101921.77
2019-06-01T08:59:01.933Z,101916.08
2019-06-01T09:00:07.968Z,101916.16
2019-06-01T09:01:13.315Z,101913.80
2019-06-01T09:02:18.670Z,101910.91
2019-06-01T09:03:25.736Z,101911.75
2019-06-01T09:04:32.732Z,101904.33
2019-06-01T09:05:37.931Z,101902.92
2019-06-01T09:06:42.922Z,101903.58
2019-06-01T09:07:47.992Z,101907.69
2019-06-01T09:08:52.957Z,101906.94
2019-06-01T09:09:58.036Z,101902.28
2019-06-01T09:11:03.273Z,101904.22
2019-06-01T09:12:08.582Z,101899.38
2019-06-01T09:13:13.539Z,101898.33
2019-06-01T09:14:18.563Z,101901.50
2019-06-01T09:15:23.592Z,101896.24
2019-06-01T09:16:29.694Z,101894.53
2019-06-01T09:17:35.526Z,101894.55
2019-06-01T09:18:40.941Z,101895.19
2019-06-01T09:19:45.925Z,101892.41
2019-06-01T09:20:50.962Z,101891.17
2019-06-01T09:21:55.954Z,101891.92
2019-06-01T09:23:02.153Z,101895.16
2019-06-01T09:24:06.833Z,101891.17
2019-06-01T09:25:12.115Z,101887.92
2019-06-01T09:26:17.398Z,101889.39
2019-06-01T09:27:22.974Z,101887.51
2019-06-01T09:28:27.934Z,101888.94
2019-06-01T09:29:34.079Z,101882.75
2019-06-01T09:30:39.415Z,101886.88
2019-06-01T09:31:45.242Z,101886.73
2019-06-01T09:32:50.216Z,101885.45
2019-06-01T09:33:55.597Z,101882.37
2019-06-01T09:35:00.276Z,101884.23
2019-06-01T09:36:05.538Z,101888.51
2019-06-01T09:37:10.500Z,101883.77
2019-06-01T09:38:16.091Z,101887.43
2019-06-01T09:39:20.770Z,101883.05
2019-06-01T09:40:28.253Z,101884.75
2019-06-01T09:41:33.133Z,101888.94
2019-06-01T09:42:38.186Z,101883.16
2019-06-01T09:43:42.622Z,101880.15
2019-06-01T09:44:48.348Z,101883.02
2019-06-01T09:45:53.753Z,101881.70
2019-06-01T09:46:59.241Z,101878.26
2019-06-01T09:48:03.945Z,101880.02
2019-06-01T09:49:09.538Z,101875.73
2019-06-01T09:50:14.724Z,101876.23
2019-06-01T09:51:20.301Z,101873.33
2019-06-01T09:52:25.577Z,101873.45
2019-06-01T09:53:32.426Z,101876.50
2019-06-01T09:54:38.138Z,101871.44
2019-06-01T09:55:43.636Z,101867.83
2019-06-01T09:56:48.949Z,101863.56
2019-06-01T09:57:54.234Z,101860.52
2019-06-01T09:58:59.482Z,101862.02
2019-06-01T10:00:05.200Z,101866.00
2019-06-01T10:01:09.913Z,101863.17
2019-06-01T10:02:15.156Z,101866.61
2019-06-01T10:03:20.095Z,101865.98
2019-06-01T10:04:25.365Z,101860.70
2019-06-01T10:05:30.280Z,101862.00
2019-06-01T10:06:36.617Z,101860.89
2019-06-01T10:07:41.641Z,101870.98
2019-06-01T10:08:47.252Z,101863.22
2019-06-01T10:09:52.542Z,101868.36
2019-06-01T10:10:58.089Z,101862.00
2019-06-01T10:12:03.096Z,101866.28
2019-06-01T10:13:08.650Z,101864.14
2019-06-01T10:14:13.336Z,101863.62
2019-06-01T10:15:18.601Z,101860.80
2019-06-01T10:16:23.833Z,101863.16
2019-06-01T10:17:30.449Z,101859.34
2019-06-01T10:18:36.935Z,101863.39
2019-06-01T10:19:43.133Z,101866.72
2019-06-01T10:20:48.357Z,101865.64
2019-06-01T10:21:54.473Z,101864.05
2019-06-01T10:22:59.157Z,101861.33
2019-06-01T10:24:04.479Z,101859.86
2019-06-01T10:25:09.968Z,101862.19
2019-06-01T10:26:15.234Z,101860.92
2019-06-01T10:27:20.205Z,101861.77
2019-06-01T10:28:25.883Z,101863.44
2019-06-01T10:29:30.748Z,101859.02
2019-06-01T10:30:37.830Z,101858.48
2019-06-01T10:31:43.256Z,101860.70
2019-06-01T10:32:49.066Z,101862.74
2019-06-01T10:33:54.107Z,101856.25
2019-06-01T10:34:59.396Z,101853.61
2019-06-01T10:36:19.044Z,101853.63
2019-06-01T10:37:11.648Z,101857.19
2019-06-01T10:38:16.935Z,101856.91
2019-06-01T10:39:22.273Z,101853.31
2019-06-01T10:40:27.302Z,101857.67
2019-06-01T10:41:33.288Z,101851.95
2019-06-01T10:42:39.728Z,101852.27
2019-06-01T10:43:45.462Z,101858.27
2019-06-01T10:44:50.423Z,101852.80
2019-06-01T10:45:55.703Z,101851.48
2019-06-01T10:47:00.417Z,101859.34
2019-06-01T10:48:05.694Z,101852.97
2019-06-01T10:49:10.681Z,101859.09
2019-06-01T10:50:17.613Z,101852.97
2019-06-01T10:51:22.497Z,101847.70
2019-06-01T10:52:28.359Z,101845.62
2019-06-01T10:53:34.851Z,101849.86
2019-06-01T10:54:42.463Z,101848.15
2019-06-01T10:55:47.447Z,101845.97
2019-06-01T10:56:53.191Z,101848.52
2019-06-01T10:57:58.666Z,101848.19
2019-06-01T10:59:03.709Z,101839.16
2019-06-01T11:00:08.795Z,101840.61
2019-06-01T11:01:14.390Z,101838.58
2019-06-01T11:02:18.824Z,101835.32
2019-06-01T11:03:24.106Z,101841.47
2019-06-01T11:04:28.850Z,101843.59
2019-06-01T11:05:34.978Z,101840.33
2019-06-01T11:06:44.912Z,101847.19
2019-06-01T11:07:46.580Z,101847.47
2019-06-01T11:08:51.903Z,101848.53
2019-06-01T11:09:57.781Z,101841.11
2019-06-01T11:11:02.509Z,101844.86
2019-06-01T11:12:07.766Z,101841.72
2019-06-01T11:13:13.330Z,101840.34
2019-06-01T11:14:18.602Z,101831.56
2019-06-01T11:15:24.165Z,101831.62
2019-06-01T11:16:29.785Z,101836.53
2019-06-01T11:17:34.935Z,101829.54
2019-06-01T11:18:41.760Z,101828.47
2019-06-01T11:19:46.638Z,101821.95
2019-06-01T11:20:52.432Z,101828.09
2019-06-01T11:21:58.005Z,101832.00
2019-06-01T11:23:03.701Z,101828.62
2019-06-01T11:24:08.337Z,101830.63
2019-06-01T11:25:14.117Z,101827.97
2019-06-01T11:26:19.355Z,101821.00
2019-06-01T11:27:24.933Z,101822.39
2019-06-01T11:28:29.911Z,101820.45
2019-06-01T11:29:41.192Z,101817.55
2019-06-01T11:30:42.141Z,101823.13
2019-06-01T11:31:47.708Z,101812.61
2019-06-01T11:32:52.877Z,101814.27
2019-06-01T11:33:57.914Z,101819.42
2019-06-01T11:35:02.642Z,101817.64
2019-06-01T11:36:08.196Z,101817.42
2019-06-01T11:37:15.439Z,101808.80
2019-06-01T11:38:20.167Z,101805.55
2019-06-01T11:39:25.171Z,101806.77
2019-06-01T11:40:31.118Z,101804.91
2019-06-01T11:41:36.391Z,101803.30
2019-06-01T11:42:42.803Z,101808.05
2019-06-01T11:43:48.275Z,101801.39
2019-06-01T11:44:53.896Z,101807.61
2019-06-01T11:45:58.890Z,101803.59
2019-06-01T11:47:04.418Z,101803.17
2019-06-01T11:48:09.392Z,101797.34
2019-06-01T11:49:14.991Z,101796.95
2019-06-01T11:50:19.693Z,101797.78
2019-06-01T11:51:25.374Z,101796.11
2019-06-01T11:52:29.802Z,101794.73
2019-06-01T11:53:35.372Z,101789.42
2019-06-01T11:54:41.193Z,101790.58
2019-06-01T11:55:46.606Z,101790.03
2019-06-01T11:56:51.920Z,101782.33
2019-06-01T11:57:57.443Z,101784.59
2019-06-01T11:59:02.725Z,101781.11
2019-06-01T12:00:10.066Z,101783.09
2019-06-01T12:01:15.095Z,101783.17
2019-06-01T12:02:20.673Z,101782.63
2019-06-01T12:03:26.253Z,101783.61
2019-06-01T12:04:31.299Z,101774.56
2019-06-01T12:05:36.298Z,101770.42
2019-06-01T12:06:42.095Z,101767.87
2019-06-01T12:07:47.351Z,101767.53
2019-06-01T12:08:53.461Z,101774.42
2019-06-01T12:09:58.540Z,101767.91
2019-06-01T12:11:03.872Z,101768.00
2019-06-01T12:12:08.854Z,101768.17
2019-06-01T12:13:14.668Z,101757.81
2019-06-01T12:14:19.645Z,101753.23
2019-06-01T12:15:26.882Z,101751.23
2019-06-01T12:16:32.224Z,101750.99
2019-06-01T12:17:38.597Z,101746.41
2019-06-01T12:18:44.725Z,101749.17
2019-06-01T12:19:50.385Z,101742.31
2019-06-01T12:20:55.067Z,101740.95
2019-06-01T12:22:00.954Z,101747.79
2019-06-01T12:23:05.876Z,101743.62
2019-06-01T12:24:11.707Z,101746.77
2019-06-01T12:25:16.856Z,101750.05
2019-06-01T12:26:22.131Z,101738.61
2019-06-01T12:27:26.805Z,101733.55
2019-06-01T12:28:32.358Z,101734.06